sensor_id;sensor_type;location;lat;lon;timestamp;temperature;humidity
782;DHT22;374;52.568;13.402;2022-11-20T00:01:14;1.60;99.90
782;DHT22;374;52.568;13.402;2022-11-20T00:03:41;1.70;99.90
782;DHT22;374;52.568;13.402;2022-11-20T00:06:10;1.70;99.90
782;DHT22;374;52.568;13.402;2022-11-20T00:08:36;1.60;99.90
782;DHT22;374;52.568;13.402;2022-11-20T00:11:06;1.60;99.90
782;DHT22;374;52.568;13.402;2022-11-20T00:13:32;1.70;99.90
782;DHT22;374;52.568;13.402;2022-11-20T00:16:00;1.60;99.90
782;DHT22;374;52.568;13.402;2022-11-20T00:18:26;1.60;99.90
782;DHT22;374;52.568;13.402;2022-11-20T00:20:52;1.70;99.90
782;DHT22;374;52.568;13.402;2022-11-20T00:23:17;1.70;99.90
782;DHT22;374;52.568;13.402;2022-11-20T00:25:43;1.60;99.90
782;DHT22;374;52.568;13.402;2022-11-20T00:28:08;1.60;99.90
782;DHT22;374;52.568;13.402;2022-11-20T00:30:34;1.70;99.90
782;DHT22;374;52.568;13.402;2022-11-20T00:32:59;1.60;99.90
782;DHT22;374;52.568;13.402;2022-11-20T00:35:25;1.60;99.90
782;DHT22;374;52.568;13.402;2022-11-20T00:37:50;1.60;99.90
782;DHT22;374;52.568;13.402;2022-11-20T00:40:16;1.60;99.90
782;DHT22;374;52.568;13.402;2022-11-20T00:42:41;1.60;99.90
782;DHT22;374;52.568;13.402;2022-11-20T00:45:07;1.60;99.90
782;DHT22;374;52.568;13.402;2022-11-20T00:47:32;1.50;99.90
782;DHT22;374;52.568;13.402;2022-11-20T00:49:58;1.60;99.90
782;DHT22;374;52.568;13.402;2022-11-20T00:52:23;1.60;99.90
782;DHT22;374;52.568;13.402;2022-11-20T00:54:49;1.60;99.90
782;DHT22;374;52.568;13.402;2022-11-20T00:57:14;1.50;99.90
782;DHT22;374;52.568;13.402;2022-11-20T00:59:40;1.50;99.90
782;DHT22;374;52.568;13.402;2022-11-20T01:02:05;1.60;99.90
782;DHT22;374;52.568;13.402;2022-11-20T01:04:31;1.50;99.90
782;DHT22;374;52.568;13.402;2022-11-20T01:06:56;1.60;99.90
782;DHT22;374;52.568;13.402;2022-11-20T01:09:22;1.60;99.90
782;DHT22;374;52.568;13.402;2022-11-20T01:11:47;1.50;99.90
782;DHT22;374;52.568;13.402;2022-11-20T01:14:15;1.60;99.90
782;DHT22;374;52.568;13.402;2022-11-20T01:16:44;1.60;99.90
782;DHT22;374;52.568;13.402;2022-11-20T01:19:12;1.50;99.90
782;DHT22;374;52.568;13.402;2022-11-20T01:21:41;1.50;99.90
782;DHT22;374;52.568;13.402;2022-11-20T01:24:10;1.60;99.90
782;DHT22;374;52.568;13.402;2022-11-20T01:26:37;1.50;99.90
782;DHT22;374;52.568;13.402;2022-11-20T01:29:04;1.60;99.90
782;DHT22;374;52.568;13.402;2022-11-20T01:31:35;1.60;99.90
782;DHT22;374;52.568;13.402;2022-11-20T01:34:05;1.50;99.90
782;DHT22;374;52.568;13.402;2022-11-20T01:36:33;1.60;99.90
782;DHT22;374;52.568;13.402;2022-11-20T01:39:01;1.50;99.90
782;DHT22;374;52.568;13.402;2022-11-20T01:41:30;1.60;99.90
782;DHT22;374;52.568;13.402;2022-11-20T01:44:17;1.50;99.90
782;DHT22;374;52.568;13.402;2022-11-20T01:47:03;1.50;99.90
782;DHT22;374;52.568;13.402;2022-11-20T01:49:37;1.50;99.90
782;DHT22;374;52.568;13.402;2022-11-20T01:52:23;1.60;99.90
782;DHT22;374;52.568;13.402;2022-11-20T01:54:56;1.60;99.90
782;DHT22;374;52.568;13.402;2022-11-20T01:57:25;1.60;99.90
782;DHT22;374;52.568;13.402;2022-11-20T01:59:59;1.60;99.90
782;DHT22;374;52.568;13.402;2022-11-20T02:02:25;1.50;99.90
782;DHT22;374;52.568;13.402;2022-11-20T02:04:54;1.60;99.90
782;DHT22;374;52.568;13.402;2022-11-20T02:07:22;1.50;99.90
782;DHT22;374;52.568;13.402;2022-11-20T02:09:48;1.50;99.90
782;DHT22;374;52.568;13.402;2022-11-20T02:12:14;1.60;99.90
782;DHT22;374;52.568;13.402;2022-11-20T02:15:00;1.60;99.90
782;DHT22;374;52.568;13.402;2022-11-20T02:17:29;1.50;99.90
782;DHT22;374;52.568;13.402;2022-11-20T02:19:55;1.60;99.90
782;DHT22;374;52.568;13.402;2022-11-20T02:22:29;1.50;99.90
782;DHT22;374;52.568;13.402;2022-11-20T02:24:56;1.50;99.90
782;DHT22;374;52.568;13.402;2022-11-20T02:27:26;1.50;99.90
782;DHT22;374;52.568;13.402;2022-11-20T02:29:59;1.60;99.90
782;DHT22;374;52.568;13.402;2022-11-20T02:32:32;1.60;99.90
782;DHT22;374;52.568;13.402;2022-11-20T02:34:58;1.50;99.90
782;DHT22;374;52.568;13.402;2022-11-20T02:37:30;1.60;99.90
782;DHT22;374;52.568;13.402;2022-11-20T02:39:57;1.50;99.90
782;DHT22;374;52.568;13.402;2022-11-20T02:42:23;1.60;99.90
782;DHT22;374;52.568;13.402;2022-11-20T02:44:48;1.60;99.90
782;DHT22;374;52.568;13.402;2022-11-20T02:47:14;1.60;99.90
782;DHT22;374;52.568;13.402;2022-11-20T02:49:41;1.60;99.90
782;DHT22;374;52.568;13.402;2022-11-20T02:52:07;1.50;99.90
782;DHT22;374;52.568;13.402;2022-11-20T02:54:32;1.40;99.90
782;DHT22;374;52.568;13.402;2022-11-20T02:56:58;1.50;99.90
782;DHT22;374;52.568;13.402;2022-11-20T02:59:24;1.60;99.90
782;DHT22;374;52.568;13.402;2022-11-20T03:01:49;1.50;99.90
782;DHT22;374;52.568;13.402;2022-11-20T03:04:15;1.60;99.90
782;DHT22;374;52.568;13.402;2022-11-20T03:06:40;1.40;99.90
782;DHT22;374;52.568;13.402;2022-11-20T03:09:06;1.50;99.90
782;DHT22;374;52.568;13.402;2022-11-20T03:11:31;1.50;99.90
782;DHT22;374;52.568;13.402;2022-11-20T03:13:57;1.50;99.90
782;DHT22;374;52.568;13.402;2022-11-20T03:16:22;1.60;99.90
782;DHT22;374;52.568;13.402;2022-11-20T03:18:48;1.40;99.90
782;DHT22;374;52.568;13.402;2022-11-20T03:21:15;1.50;99.90
782;DHT22;374;52.568;13.402;2022-11-20T03:23:41;1.60;99.90
782;DHT22;374;52.568;13.402;2022-11-20T03:26:13;1.50;99.90
782;DHT22;374;52.568;13.402;2022-11-20T03:28:40;1.50;99.90
782;DHT22;374;52.568;13.402;2022-11-20T03:31:23;1.60;99.90
782;DHT22;374;52.568;13.402;2022-11-20T03:33:56;1.50;99.90
782;DHT22;374;52.568;13.402;2022-11-20T03:36:23;1.50;99.90
782;DHT22;374;52.568;13.402;2022-11-20T03:38:48;1.40;99.90
782;DHT22;374;52.568;13.402;2022-11-20T03:41:19;1.50;99.90
782;DHT22;374;52.568;13.402;2022-11-20T03:43:56;1.50;99.90
782;DHT22;374;52.568;13.402;2022-11-20T03:46:22;1.50;99.90
782;DHT22;374;52.568;13.402;2022-11-20T03:48:48;1.40;99.90
782;DHT22;374;52.568;13.402;2022-11-20T03:51:16;1.40;99.90
782;DHT22;374;52.568;13.402;2022-11-20T03:53:43;1.50;99.90
782;DHT22;374;52.568;13.402;2022-11-20T03:56:10;1.50;99.90
782;DHT22;374;52.568;13.402;2022-11-20T03:58:37;1.40;99.90
782;DHT22;374;52.568;13.402;2022-11-20T04:01:12;1.40;99.90
782;DHT22;374;52.568;13.402;2022-11-20T04:03:39;1.40;99.90
782;DHT22;374;52.568;13.402;2022-11-20T04:06:10;1.50;99.90
782;DHT22;374;52.568;13.402;2022-11-20T04:08:36;1.50;99.90
782;DHT22;374;52.568;13.402;2022-11-20T04:11:16;1.40;99.90
782;DHT22;374;52.568;13.402;2022-11-20T04:13:46;1.40;99.90
782;DHT22;374;52.568;13.402;2022-11-20T04:16:12;1.50;99.90
782;DHT22;374;52.568;13.402;2022-11-20T04:18:37;1.40;99.90
782;DHT22;374;52.568;13.402;2022-11-20T04:21:04;1.50;99.90
782;DHT22;374;52.568;13.402;2022-11-20T04:23:30;1.50;99.90
782;DHT22;374;52.568;13.402;2022-11-20T04:26:04;1.40;99.90
782;DHT22;374;52.568;13.402;2022-11-20T04:28:29;1.50;99.90
782;DHT22;374;52.568;13.402;2022-11-20T04:31:08;1.50;99.90
782;DHT22;374;52.568;13.402;2022-11-20T04:33:36;1.40;99.90
782;DHT22;374;52.568;13.402;2022-11-20T04:36:07;1.40;99.90
782;DHT22;374;52.568;13.402;2022-11-20T04:38:35;1.50;99.90
782;DHT22;374;52.568;13.402;2022-11-20T04:41:03;1.40;99.90
782;DHT22;374;52.568;13.402;2022-11-20T04:43:29;1.40;99.90
782;DHT22;374;52.568;13.402;2022-11-20T04:45:56;1.40;99.90
782;DHT22;374;52.568;13.402;2022-11-20T04:48:23;1.50;99.90
782;DHT22;374;52.568;13.402;2022-11-20T04:50:52;1.40;99.90
782;DHT22;374;52.568;13.402;2022-11-20T04:53:18;1.40;99.90
782;DHT22;374;52.568;13.402;2022-11-20T04:55:44;1.40;99.90
782;DHT22;374;52.568;13.402;2022-11-20T04:58:10;1.40;99.90
782;DHT22;374;52.568;13.402;2022-11-20T05:00:35;1.40;99.90
782;DHT22;374;52.568;13.402;2022-11-20T05:03:01;1.50;99.90
782;DHT22;374;52.568;13.402;2022-11-20T05:05:27;1.50;99.90
782;DHT22;374;52.568;13.402;2022-11-20T05:07:52;1.40;99.90
782;DHT22;374;52.568;13.402;2022-11-20T05:10:18;1.50;99.90
782;DHT22;374;52.568;13.402;2022-11-20T05:12:43;1.40;99.90
782;DHT22;374;52.568;13.402;2022-11-20T05:15:09;1.50;99.90
782;DHT22;374;52.568;13.402;2022-11-20T05:17:34;1.50;99.90
782;DHT22;374;52.568;13.402;2022-11-20T05:20:03;1.50;99.90
782;DHT22;374;52.568;13.402;2022-11-20T05:22:29;1.50;99.90
782;DHT22;374;52.568;13.402;2022-11-20T05:24:54;1.40;99.90
782;DHT22;374;52.568;13.402;2022-11-20T05:27:19;1.40;99.90
782;DHT22;374;52.568;13.402;2022-11-20T05:29:45;1.40;99.90
782;DHT22;374;52.568;13.402;2022-11-20T05:32:10;1.50;99.90
782;DHT22;374;52.568;13.402;2022-11-20T05:34:36;1.50;99.90
782;DHT22;374;52.568;13.402;2022-11-20T05:37:02;1.50;99.90
782;DHT22;374;52.568;13.402;2022-11-20T05:39:28;1.50;99.90
782;DHT22;374;52.568;13.402;2022-11-20T05:41:53;1.40;99.90
782;DHT22;374;52.568;13.402;2022-11-20T05:44:39;1.50;99.90
782;DHT22;374;52.568;13.402;2022-11-20T05:47:05;1.40;99.90
782;DHT22;374;52.568;13.402;2022-11-20T05:49:31;1.40;99.90
782;DHT22;374;52.568;13.402;2022-11-20T05:51:56;1.50;99.90
782;DHT22;374;52.568;13.402;2022-11-20T05:54:22;1.50;99.90
782;DHT22;374;52.568;13.402;2022-11-20T05:56:47;1.50;99.90
782;DHT22;374;52.568;13.402;2022-11-20T05:59:13;1.40;99.90
782;DHT22;374;52.568;13.402;2022-11-20T06:01:38;1.50;99.90
782;DHT22;374;52.568;13.402;2022-11-20T06:04:04;1.40;99.90
782;DHT22;374;52.568;13.402;2022-11-20T06:06:29;1.50;99.90
782;DHT22;374;52.568;13.402;2022-11-20T06:08:55;1.40;99.90
782;DHT22;374;52.568;13.402;2022-11-20T06:11:21;1.40;99.90
782;DHT22;374;52.568;13.402;2022-11-20T06:13:47;1.50;99.90
782;DHT22;374;52.568;13.402;2022-11-20T06:16:14;1.40;99.90
782;DHT22;374;52.568;13.402;2022-11-20T06:18:40;1.40;99.90
782;DHT22;374;52.568;13.402;2022-11-20T06:21:11;1.40;99.90
782;DHT22;374;52.568;13.402;2022-11-20T06:23:37;1.40;99.90
782;DHT22;374;52.568;13.402;2022-11-20T06:26:08;1.40;99.90
782;DHT22;374;52.568;13.402;2022-11-20T06:28:34;1.40;99.90
782;DHT22;374;52.568;13.402;2022-11-20T06:31:00;1.40;99.90
782;DHT22;374;52.568;13.402;2022-11-20T06:33:25;1.50;99.90
782;DHT22;374;52.568;13.402;2022-11-20T06:35:58;1.50;99.90
782;DHT22;374;52.568;13.402;2022-11-20T06:38:25;1.40;99.90
782;DHT22;374;52.568;13.402;2022-11-20T06:40:51;1.40;99.90
782;DHT22;374;52.568;13.402;2022-11-20T06:43:16;1.50;99.90
782;DHT22;374;52.568;13.402;2022-11-20T06:45:42;1.50;99.90
782;DHT22;374;52.568;13.402;2022-11-20T06:48:08;1.50;99.90
782;DHT22;374;52.568;13.402;2022-11-20T06:50:36;1.50;99.90
782;DHT22;374;52.568;13.402;2022-11-20T06:53:02;1.50;99.90
782;DHT22;374;52.568;13.402;2022-11-20T06:55:28;1.50;99.90
782;DHT22;374;52.568;13.402;2022-11-20T06:57:54;1.50;99.90
782;DHT22;374;52.568;13.402;2022-11-20T07:00:19;1.40;99.90
782;DHT22;374;52.568;13.402;2022-11-20T07:02:45;1.50;99.90
782;DHT22;374;52.568;13.402;2022-11-20T07:05:10;1.50;99.90
782;DHT22;374;52.568;13.402;2022-11-20T07:07:35;1.50;99.90
782;DHT22;374;52.568;13.402;2022-11-20T07:10:05;1.50;99.90
782;DHT22;374;52.568;13.402;2022-11-20T07:12:30;1.60;99.90
782;DHT22;374;52.568;13.402;2022-11-20T07:14:56;1.40;99.90
782;DHT22;374;52.568;13.402;2022-11-20T07:17:22;1.60;99.90
782;DHT22;374;52.568;13.402;2022-11-20T07:19:48;1.60;99.90
782;DHT22;374;52.568;13.402;2022-11-20T07:22:14;1.60;99.90
782;DHT22;374;52.568;13.402;2022-11-20T07:24:41;1.50;99.90
782;DHT22;374;52.568;13.402;2022-11-20T07:27:06;1.50;99.90
782;DHT22;374;52.568;13.402;2022-11-20T07:29:32;1.60;99.90
782;DHT22;374;52.568;13.402;2022-11-20T07:31:57;1.60;99.90
782;DHT22;374;52.568;13.402;2022-11-20T07:34:23;1.50;99.90
782;DHT22;374;52.568;13.402;2022-11-20T07:36:48;1.50;99.90
782;DHT22;374;52.568;13.402;2022-11-20T07:39:14;1.60;99.90
782;DHT22;374;52.568;13.402;2022-11-20T07:41:39;1.50;99.90
782;DHT22;374;52.568;13.402;2022-11-20T07:44:05;1.50;99.90
782;DHT22;374;52.568;13.402;2022-11-20T07:46:33;1.60;99.90
782;DHT22;374;52.568;13.402;2022-11-20T07:48:58;1.60;99.90
782;DHT22;374;52.568;13.402;2022-11-20T07:51:24;1.60;99.90
782;DHT22;374;52.568;13.402;2022-11-20T07:53:52;1.60;99.90
782;DHT22;374;52.568;13.402;2022-11-20T07:56:18;1.60;99.90
782;DHT22;374;52.568;13.402;2022-11-20T07:58:43;1.50;99.90
782;DHT22;374;52.568;13.402;2022-11-20T08:01:10;1.60;99.90
782;DHT22;374;52.568;13.402;2022-11-20T08:03:35;1.60;99.90
782;DHT22;374;52.568;13.402;2022-11-20T08:06:03;1.60;99.90
782;DHT22;374;52.568;13.402;2022-11-20T08:08:29;1.60;99.90
782;DHT22;374;52.568;13.402;2022-11-20T08:10:56;1.70;99.90
782;DHT22;374;52.568;13.402;2022-11-20T08:13:42;1.60;99.90
782;DHT22;374;52.568;13.402;2022-11-20T08:16:26;1.70;99.90
782;DHT22;374;52.568;13.402;2022-11-20T08:18:55;1.70;99.90
782;DHT22;374;52.568;13.402;2022-11-20T08:21:20;1.60;99.90
782;DHT22;374;52.568;13.402;2022-11-20T08:23:46;1.70;99.90
782;DHT22;374;52.568;13.402;2022-11-20T08:26:11;1.60;99.90
782;DHT22;374;52.568;13.402;2022-11-20T08:28:37;1.70;99.90
782;DHT22;374;52.568;13.402;2022-11-20T08:31:03;1.60;99.90
782;DHT22;374;52.568;13.402;2022-11-20T08:33:29;1.70;99.90
782;DHT22;374;52.568;13.402;2022-11-20T08:36:01;1.60;99.90
782;DHT22;374;52.568;13.402;2022-11-20T08:38:30;1.60;99.90
782;DHT22;374;52.568;13.402;2022-11-20T08:40:57;1.60;99.90
782;DHT22;374;52.568;13.402;2022-11-20T08:43:42;1.60;99.90
782;DHT22;374;52.568;13.402;2022-11-20T08:46:07;1.70;99.90
782;DHT22;374;52.568;13.402;2022-11-20T08:48:32;1.60;99.90
782;DHT22;374;52.568;13.402;2022-11-20T08:50:58;1.70;99.90
782;DHT22;374;52.568;13.402;2022-11-20T08:53:25;1.70;99.90
782;DHT22;374;52.568;13.402;2022-11-20T08:55:50;1.70;99.90
782;DHT22;374;52.568;13.402;2022-11-20T08:58:16;1.70;99.90
782;DHT22;374;52.568;13.402;2022-11-20T09:00:41;1.60;99.90
782;DHT22;374;52.568;13.402;2022-11-20T09:03:06;1.70;99.90
782;DHT22;374;52.568;13.402;2022-11-20T09:05:32;1.80;99.90
782;DHT22;374;52.568;13.402;2022-11-20T09:07:58;1.80;99.90
782;DHT22;374;52.568;13.402;2022-11-20T09:10:24;1.70;99.90
782;DHT22;374;52.568;13.402;2022-11-20T09:12:50;1.70;99.90
782;DHT22;374;52.568;13.402;2022-11-20T09:15:17;1.70;99.90
782;DHT22;374;52.568;13.402;2022-11-20T09:17:42;1.80;99.90
782;DHT22;374;52.568;13.402;2022-11-20T09:20:21;1.70;99.90
782;DHT22;374;52.568;13.402;2022-11-20T09:22:47;1.70;99.90
782;DHT22;374;52.568;13.402;2022-11-20T09:25:12;1.80;99.90
782;DHT22;374;52.568;13.402;2022-11-20T09:27:38;1.80;99.90
782;DHT22;374;52.568;13.402;2022-11-20T09:30:04;1.80;99.90
782;DHT22;374;52.568;13.402;2022-11-20T09:32:29;1.80;99.90
782;DHT22;374;52.568;13.402;2022-11-20T09:34:55;1.80;99.90
782;DHT22;374;52.568;13.402;2022-11-20T09:37:21;1.80;99.90
782;DHT22;374;52.568;13.402;2022-11-20T09:39:46;1.80;99.90
782;DHT22;374;52.568;13.402;2022-11-20T09:48:32;1.90;99.90
782;DHT22;374;52.568;13.402;2022-11-20T09:51:25;1.90;99.90
782;DHT22;374;52.568;13.402;2022-11-20T09:54:13;1.90;99.90
782;DHT22;374;52.568;13.402;2022-11-20T09:56:42;1.90;99.90
782;DHT22;374;52.568;13.402;2022-11-20T09:59:21;1.90;99.90
782;DHT22;374;52.568;13.402;2022-11-20T10:01:47;2.00;99.90
782;DHT22;374;52.568;13.402;2022-11-20T10:04:17;2.00;99.90
782;DHT22;374;52.568;13.402;2022-11-20T10:09:40;2.00;99.90
782;DHT22;374;52.568;13.402;2022-11-20T10:12:31;2.10;99.90
782;DHT22;374;52.568;13.402;2022-11-20T10:28:41;2.10;99.90
782;DHT22;374;52.568;13.402;2022-11-20T10:31:42;2.10;99.90
782;DHT22;374;52.568;13.402;2022-11-20T10:34:20;2.10;99.90
782;DHT22;374;52.568;13.402;2022-11-20T10:37:18;2.20;99.90
782;DHT22;374;52.568;13.402;2022-11-20T10:43:04;2.20;99.90
782;DHT22;374;52.568;13.402;2022-11-20T10:48:25;2.20;99.90
782;DHT22;374;52.568;13.402;2022-11-20T10:53:54;2.30;99.90
782;DHT22;374;52.568;13.402;2022-11-20T10:59:23;2.40;99.90
782;DHT22;374;52.568;13.402;2022-11-20T11:01:52;2.40;99.90
782;DHT22;374;52.568;13.402;2022-11-20T11:06:49;2.40;99.90
782;DHT22;374;52.568;13.402;2022-11-20T11:09:21;2.50;99.90
782;DHT22;374;52.568;13.402;2022-11-20T11:11:49;2.50;99.90
782;DHT22;374;52.568;13.402;2022-11-20T11:14:15;2.50;99.90
782;DHT22;374;52.568;13.402;2022-11-20T11:16:50;2.50;99.90
782;DHT22;374;52.568;13.402;2022-11-20T11:19:16;2.50;99.90
782;DHT22;374;52.568;13.402;2022-11-20T11:21:55;2.50;99.90
782;DHT22;374;52.568;13.402;2022-11-20T11:24:29;2.50;99.90
782;DHT22;374;52.568;13.402;2022-11-20T11:27:12;2.50;99.90
782;DHT22;374;52.568;13.402;2022-11-20T11:29:38;2.50;99.90
782;DHT22;374;52.568;13.402;2022-11-20T11:32:06;2.50;99.90
782;DHT22;374;52.568;13.402;2022-11-20T11:34:32;2.50;99.90
782;DHT22;374;52.568;13.402;2022-11-20T11:36:58;2.60;99.90
782;DHT22;374;52.568;13.402;2022-11-20T11:39:26;2.60;99.90
782;DHT22;374;52.568;13.402;2022-11-20T11:41:52;2.60;99.90
782;DHT22;374;52.568;13.402;2022-11-20T11:44:29;2.60;99.90
782;DHT22;374;52.568;13.402;2022-11-20T11:58:45;2.60;99.90
782;DHT22;374;52.568;13.402;2022-11-20T12:06:58;2.50;99.90
782;DHT22;374;52.568;13.402;2022-11-20T12:09:33;2.50;99.90
782;DHT22;374;52.568;13.402;2022-11-20T12:12:14;2.50;99.90
782;DHT22;374;52.568;13.402;2022-11-20T12:14:46;2.40;99.90
782;DHT22;374;52.568;13.402;2022-11-20T12:17:15;2.50;99.90
782;DHT22;374;52.568;13.402;2022-11-20T12:19:41;2.40;99.90
782;DHT22;374;52.568;13.402;2022-11-20T12:30:16;2.40;99.90
782;DHT22;374;52.568;13.402;2022-11-20T12:35:32;2.40;99.90
782;DHT22;374;52.568;13.402;2022-11-20T12:44:35;2.40;99.90
782;DHT22;374;52.568;13.402;2022-11-20T12:50:30;2.40;99.90
782;DHT22;374;52.568;13.402;2022-11-20T12:53:09;2.40;99.90
782;DHT22;374;52.568;13.402;2022-11-20T12:58:40;2.40;99.90
782;DHT22;374;52.568;13.402;2022-11-20T13:01:25;2.40;99.90
782;DHT22;374;52.568;13.402;2022-11-20T13:06:45;2.40;99.90
782;DHT22;374;52.568;13.402;2022-11-20T13:09:16;2.40;99.90
782;DHT22;374;52.568;13.402;2022-11-20T13:11:56;2.40;99.90
782;DHT22;374;52.568;13.402;2022-11-20T13:17:51;2.50;99.90
782;DHT22;374;52.568;13.402;2022-11-20T13:20:20;2.50;99.90
782;DHT22;374;52.568;13.402;2022-11-20T13:22:48;2.50;99.90
782;DHT22;374;52.568;13.402;2022-11-20T13:25:31;2.50;99.90
782;DHT22;374;52.568;13.402;2022-11-20T13:28:00;2.60;99.90
782;DHT22;374;52.568;13.402;2022-11-20T13:30:27;2.50;99.90
782;DHT22;374;52.568;13.402;2022-11-20T13:33:04;2.50;99.90
782;DHT22;374;52.568;13.402;2022-11-20T13:35:40;2.50;99.90
782;DHT22;374;52.568;13.402;2022-11-20T13:38:11;2.50;99.90
782;DHT22;374;52.568;13.402;2022-11-20T13:40:49;2.50;99.90
782;DHT22;374;52.568;13.402;2022-11-20T13:43:40;2.50;99.90
782;DHT22;374;52.568;13.402;2022-11-20T13:46:09;2.50;99.90
782;DHT22;374;52.568;13.402;2022-11-20T13:48:41;2.50;99.90
782;DHT22;374;52.568;13.402;2022-11-20T13:51:37;2.50;99.90
782;DHT22;374;52.568;13.402;2022-11-20T13:57:26;2.50;99.90
782;DHT22;374;52.568;13.402;2022-11-20T14:00:17;2.50;99.90
782;DHT22;374;52.568;13.402;2022-11-20T14:03:18;2.50;99.90
782;DHT22;374;52.568;13.402;2022-11-20T14:05:51;2.50;99.90
782;DHT22;374;52.568;13.402;2022-11-20T14:08:27;2.50;99.90
782;DHT22;374;52.568;13.402;2022-11-20T14:11:30;2.50;99.90
782;DHT22;374;52.568;13.402;2022-11-20T14:16:30;2.50;99.90
782;DHT22;374;52.568;13.402;2022-11-20T14:19:26;2.50;99.90
782;DHT22;374;52.568;13.402;2022-11-20T14:22:17;2.50;99.90
782;DHT22;374;52.568;13.402;2022-11-20T14:24:44;2.40;99.90
782;DHT22;374;52.568;13.402;2022-11-20T14:27:18;2.50;99.90
782;DHT22;374;52.568;13.402;2022-11-20T14:29:47;2.40;99.90
782;DHT22;374;52.568;13.402;2022-11-20T14:32:28;2.40;99.90
782;DHT22;374;52.568;13.402;2022-11-20T14:34:57;2.40;99.90
782;DHT22;374;52.568;13.402;2022-11-20T14:37:27;2.40;99.90
782;DHT22;374;52.568;13.402;2022-11-20T14:39:55;2.40;99.90
782;DHT22;374;52.568;13.402;2022-11-20T14:42:23;2.40;99.90
782;DHT22;374;52.568;13.402;2022-11-20T14:44:51;2.40;99.90
782;DHT22;374;52.568;13.402;2022-11-20T14:47:23;2.40;99.90
782;DHT22;374;52.568;13.402;2022-11-20T14:49:51;2.40;99.90
782;DHT22;374;52.568;13.402;2022-11-20T14:52:19;2.40;99.90
782;DHT22;374;52.568;13.402;2022-11-20T14:54:50;2.40;99.90
782;DHT22;374;52.568;13.402;2022-11-20T14:57:27;2.40;99.90
782;DHT22;374;52.568;13.402;2022-11-20T15:02:45;2.40;99.90
782;DHT22;374;52.568;13.402;2022-11-20T15:05:11;2.40;99.90
782;DHT22;374;52.568;13.402;2022-11-20T15:07:39;2.40;99.90
782;DHT22;374;52.568;13.402;2022-11-20T15:10:10;2.30;99.90
782;DHT22;374;52.568;13.402;2022-11-20T15:12:46;2.40;99.90
782;DHT22;374;52.568;13.402;2022-11-20T15:15:19;2.40;99.90
782;DHT22;374;52.568;13.402;2022-11-20T15:17:46;2.40;99.90
782;DHT22;374;52.568;13.402;2022-11-20T15:20:14;2.30;99.90
782;DHT22;374;52.568;13.402;2022-11-20T15:22:40;2.30;99.90
782;DHT22;374;52.568;13.402;2022-11-20T15:25:12;2.30;99.90
782;DHT22;374;52.568;13.402;2022-11-20T15:27:38;2.40;99.90
782;DHT22;374;52.568;13.402;2022-11-20T15:30:15;2.30;99.90
782;DHT22;374;52.568;13.402;2022-11-20T15:32:42;2.40;99.90
782;DHT22;374;52.568;13.402;2022-11-20T15:35:10;2.30;99.90
782;DHT22;374;52.568;13.402;2022-11-20T15:37:41;2.30;99.90
782;DHT22;374;52.568;13.402;2022-11-20T15:40:07;2.30;99.90
782;DHT22;374;52.568;13.402;2022-11-20T15:42:34;2.30;99.90
782;DHT22;374;52.568;13.402;2022-11-20T15:45:00;2.30;99.90
782;DHT22;374;52.568;13.402;2022-11-20T15:47:28;2.30;99.90
782;DHT22;374;52.568;13.402;2022-11-20T15:49:54;2.30;99.90
782;DHT22;374;52.568;13.402;2022-11-20T15:52:22;2.30;99.90
782;DHT22;374;52.568;13.402;2022-11-20T15:54:48;2.30;99.90
782;DHT22;374;52.568;13.402;2022-11-20T15:57:13;2.30;99.90
782;DHT22;374;52.568;13.402;2022-11-20T15:59:39;2.30;99.90
782;DHT22;374;52.568;13.402;2022-11-20T16:02:15;2.30;99.90
782;DHT22;374;52.568;13.402;2022-11-20T16:04:41;2.30;99.90
782;DHT22;374;52.568;13.402;2022-11-20T16:07:07;2.30;99.90
782;DHT22;374;52.568;13.402;2022-11-20T16:09:33;2.30;99.90
782;DHT22;374;52.568;13.402;2022-11-20T16:11:59;2.30;99.90
782;DHT22;374;52.568;13.402;2022-11-20T16:14:32;2.20;99.90
782;DHT22;374;52.568;13.402;2022-11-20T16:17:16;2.20;99.90
782;DHT22;374;52.568;13.402;2022-11-20T16:20:01;2.20;99.90
782;DHT22;374;52.568;13.402;2022-11-20T16:22:27;2.20;99.90
782;DHT22;374;52.568;13.402;2022-11-20T16:24:52;2.10;99.90
782;DHT22;374;52.568;13.402;2022-11-20T16:27:18;2.10;99.90
782;DHT22;374;52.568;13.402;2022-11-20T16:29:43;2.10;99.90
782;DHT22;374;52.568;13.402;2022-11-20T16:32:09;2.10;99.90
782;DHT22;374;52.568;13.402;2022-11-20T16:34:35;2.10;99.90
782;DHT22;374;52.568;13.402;2022-11-20T16:37:00;2.10;99.90
782;DHT22;374;52.568;13.402;2022-11-20T16:39:26;2.00;99.90
782;DHT22;374;52.568;13.402;2022-11-20T16:41:51;2.00;99.90
782;DHT22;374;52.568;13.402;2022-11-20T16:44:17;2.00;99.90
782;DHT22;374;52.568;13.402;2022-11-20T16:46:42;2.00;99.90
782;DHT22;374;52.568;13.402;2022-11-20T16:49:12;2.00;99.90
782;DHT22;374;52.568;13.402;2022-11-20T16:51:38;1.90;99.90
782;DHT22;374;52.568;13.402;2022-11-20T16:54:08;1.90;99.90
782;DHT22;374;52.568;13.402;2022-11-20T16:56:37;1.90;99.90
782;DHT22;374;52.568;13.402;2022-11-20T16:59:03;1.90;99.90
782;DHT22;374;52.568;13.402;2022-11-20T17:01:30;1.90;99.90
782;DHT22;374;52.568;13.402;2022-11-20T17:04:06;1.90;99.90
782;DHT22;374;52.568;13.402;2022-11-20T17:06:36;1.90;99.90
782;DHT22;374;52.568;13.402;2022-11-20T17:09:03;1.90;99.90
782;DHT22;374;52.568;13.402;2022-11-20T17:11:29;1.90;99.90
782;DHT22;374;52.568;13.402;2022-11-20T17:13:56;1.90;99.90
782;DHT22;374;52.568;13.402;2022-11-20T17:16:24;1.90;99.90
782;DHT22;374;52.568;13.402;2022-11-20T17:18:53;2.00;99.90
782;DHT22;374;52.568;13.402;2022-11-20T17:21:18;2.00;99.90
782;DHT22;374;52.568;13.402;2022-11-20T17:23:45;2.00;99.90
782;DHT22;374;52.568;13.402;2022-11-20T17:26:19;2.00;99.90
782;DHT22;374;52.568;13.402;2022-11-20T17:29:08;2.00;99.90
782;DHT22;374;52.568;13.402;2022-11-20T17:31:33;1.90;99.90
782;DHT22;374;52.568;13.402;2022-11-20T17:33:59;2.00;99.90
782;DHT22;374;52.568;13.402;2022-11-20T17:36:29;2.00;99.90
782;DHT22;374;52.568;13.402;2022-11-20T17:38:54;2.00;99.90
782;DHT22;374;52.568;13.402;2022-11-20T17:41:21;2.00;99.90
782;DHT22;374;52.568;13.402;2022-11-20T17:43:48;2.00;99.90
782;DHT22;374;52.568;13.402;2022-11-20T17:46:19;2.00;99.90
782;DHT22;374;52.568;13.402;2022-11-20T17:48:46;2.00;99.90
782;DHT22;374;52.568;13.402;2022-11-20T17:51:20;2.00;99.90
782;DHT22;374;52.568;13.402;2022-11-20T17:53:48;2.00;99.90
782;DHT22;374;52.568;13.402;2022-11-20T17:56:14;2.00;99.90
782;DHT22;374;52.568;13.402;2022-11-20T17:58:59;2.00;99.90
782;DHT22;374;52.568;13.402;2022-11-20T18:01:28;2.00;99.90
782;DHT22;374;52.568;13.402;2022-11-20T18:03:55;2.10;99.90
782;DHT22;374;52.568;13.402;2022-11-20T18:06:23;2.10;99.90
782;DHT22;374;52.568;13.402;2022-11-20T18:08:49;2.10;99.90
782;DHT22;374;52.568;13.402;2022-11-20T18:11:23;2.10;99.90
782;DHT22;374;52.568;13.402;2022-11-20T18:13:54;2.10;99.90
782;DHT22;374;52.568;13.402;2022-11-20T18:16:40;2.10;99.90
782;DHT22;374;52.568;13.402;2022-11-20T18:19:08;2.00;99.90
782;DHT22;374;52.568;13.402;2022-11-20T18:21:34;2.10;99.90